createdAt,value
2023-09-18T00:02:06.336Z,18.55
2023-09-18T00:04:34.896Z,18.54
2023-09-18T00:07:02.672Z,18.59
2023-09-18T00:09:31.917Z,18.58
2023-09-18T00:11:59.595Z,18.60
2023-09-18T00:14:28.011Z,18.59
2023-09-18T00:16:59.396Z,18.62
2023-09-18T00:19:27.633Z,18.66
2023-09-18T00:21:55.759Z,18.63
2023-09-18T00:24:23.625Z,18.67
2023-09-18T00:26:54.195Z,18.65
2023-09-18T00:29:22.034Z,18.65
2023-09-18T00:31:49.940Z,18.66
2023-09-18T00:34:17.633Z,18.67
2023-09-18T00:36:45.432Z,18.63
2023-09-18T00:39:13.129Z,18.68
2023-09-18T00:41:42.150Z,18.64
2023-09-18T00:44:11.379Z,18.63
2023-09-18T00:46:39.075Z,18.65
2023-09-18T00:49:06.855Z,18.68
2023-09-18T00:51:34.687Z,18.65
2023-09-18T00:54:02.772Z,18.68
2023-09-18T00:56:30.559Z,18.65
2023-09-18T00:58:58.314Z,18.67
2023-09-18T01:01:27.584Z,18.71
2023-09-18T01:03:55.440Z,18.64
2023-09-18T01:06:23.267Z,18.63
2023-09-18T01:08:54.706Z,18.61
2023-09-18T01:11:27.393Z,18.62
2023-09-18T01:13:59.099Z,18.69
2023-09-18T01:16:29.910Z,18.69
2023-09-18T01:18:57.650Z,18.66
2023-09-18T01:21:25.342Z,18.71
2023-09-18T01:23:54.421Z,18.73
2023-09-18T01:26:22.142Z,18.70
2023-09-18T01:28:50.094Z,18.70
2023-09-18T01:31:18.827Z,18.73
2023-09-18T01:33:48.600Z,18.70
2023-09-18T01:36:18.361Z,18.74
2023-09-18T01:38:46.417Z,18.74
2023-09-18T01:41:15.804Z,18.77
2023-09-18T01:43:43.557Z,18.78
2023-09-18T01:46:11.694Z,18.82
2023-09-18T01:48:39.453Z,18.83
2023-09-18T01:51:07.200Z,18.86
2023-09-18T01:53:34.971Z,18.80
2023-09-18T01:56:03.068Z,18.79
2023-09-18T01:58:33.345Z,18.84
2023-09-18T02:01:02.597Z,18.81
2023-09-18T02:03:53.576Z,18.81
2023-09-18T02:06:18.611Z,18.58
2023-09-18T02:08:46.548Z,18.86
2023-09-18T02:11:14.357Z,18.89
2023-09-18T02:13:43.472Z,18.89
2023-09-18T02:16:11.255Z,18.87
2023-09-18T02:18:38.925Z,18.80
2023-09-18T02:21:06.613Z,18.61
2023-09-18T02:23:34.416Z,18.58
2023-09-18T02:26:02.158Z,18.60
2023-09-18T02:28:29.809Z,18.55
2023-09-18T02:30:58.826Z,18.56
2023-09-18T02:33:26.523Z,18.59
2023-09-18T02:35:54.218Z,18.66
2023-09-18T02:38:21.968Z,18.67
2023-09-18T02:40:49.756Z,18.64
2023-09-18T02:43:17.445Z,18.68
2023-09-18T02:45:45.979Z,18.77
2023-09-18T02:48:15.113Z,18.64
2023-09-18T02:50:42.925Z,18.79
2023-09-18T02:53:18.430Z,18.59
2023-09-18T02:55:46.193Z,18.72
2023-09-18T02:58:13.907Z,18.62
2023-09-18T03:00:44.232Z,18.62
2023-09-18T03:03:12.500Z,18.47
2023-09-18T03:05:42.598Z,18.64
2023-09-18T03:08:10.692Z,18.70
2023-09-18T03:10:40.640Z,18.76
2023-09-18T03:13:08.937Z,18.82
2023-09-18T03:15:36.731Z,18.87
2023-09-18T03:18:04.786Z,18.92
2023-09-18T03:20:32.841Z,18.93
2023-09-18T03:23:03.067Z,18.95
2023-09-18T03:25:31.117Z,18.92
2023-09-18T03:28:17.594Z,18.66
2023-09-18T03:30:45.297Z,18.75
2023-09-18T03:33:13.107Z,18.84
2023-09-18T03:35:47.642Z,18.88
2023-09-18T03:38:17.381Z,18.85
2023-09-18T03:40:45.559Z,18.51
2023-09-18T03:43:13.900Z,18.43
2023-09-18T03:45:42.802Z,18.43
2023-09-18T03:48:11.098Z,18.45
2023-09-18T03:50:40.043Z,18.56
2023-09-18T03:53:08.790Z,18.45
2023-09-18T03:55:39.044Z,18.48
2023-09-18T03:58:07.574Z,18.49
2023-09-18T04:00:35.373Z,18.43
2023-09-18T04:03:03.053Z,18.19
2023-09-18T04:05:30.734Z,18.40
2023-09-18T04:07:58.476Z,18.45
2023-09-18T04:10:27.978Z,18.44
2023-09-18T04:12:57.062Z,18.45
2023-09-18T04:15:24.773Z,18.46
2023-09-18T04:17:52.525Z,18.60
2023-09-18T04:20:20.497Z,18.63
2023-09-18T04:22:51.057Z,18.73
2023-09-18T04:25:20.706Z,18.78
2023-09-18T04:27:51.388Z,18.82
2023-09-18T04:30:21.429Z,18.80
2023-09-18T04:32:49.275Z,18.72
2023-09-18T04:35:17.142Z,18.56
2023-09-18T04:37:44.914Z,18.46
2023-09-18T04:40:13.437Z,18.38
2023-09-18T04:42:41.626Z,18.42
2023-09-18T04:45:09.838Z,18.40
2023-09-18T04:47:39.025Z,18.47
2023-09-18T04:50:10.932Z,18.44
2023-09-18T04:52:41.706Z,18.60
2023-09-18T04:55:09.821Z,18.54
2023-09-18T04:57:37.729Z,18.57
2023-09-18T05:00:16.942Z,18.60
2023-09-18T05:02:47.314Z,18.67
2023-09-18T05:05:15.606Z,18.71
2023-09-18T05:07:43.483Z,18.78
2023-09-18T05:10:11.688Z,18.86
2023-09-18T05:12:41.242Z,18.96
2023-09-18T05:15:10.833Z,18.98
2023-09-18T05:17:43.526Z,18.94
2023-09-18T05:20:15.409Z,19.01
2023-09-18T05:22:43.397Z,19.03
2023-09-18T05:25:11.824Z,19.01
2023-09-18T05:27:45.144Z,18.95
2023-09-18T05:30:14.710Z,18.92
2023-09-18T05:32:42.841Z,18.95
2023-09-18T05:35:13.769Z,18.93
2023-09-18T05:37:43.480Z,19.05
2023-09-18T05:40:11.985Z,18.96
2023-09-18T05:42:40.322Z,18.94
2023-09-18T05:45:08.828Z,18.77
2023-09-18T05:47:37.437Z,18.69
2023-09-18T05:50:06.708Z,18.67
2023-09-18T05:52:34.549Z,18.71
2023-09-18T05:55:05.712Z,18.73
2023-09-18T05:57:34.001Z,18.65
2023-09-18T06:00:01.757Z,18.55
2023-09-18T06:02:29.499Z,18.52
2023-09-18T06:04:58.934Z,18.56
2023-09-18T06:07:26.775Z,18.56
2023-09-18T06:09:55.893Z,18.53
2023-09-18T06:12:26.276Z,18.60
2023-09-18T06:14:53.974Z,18.69
2023-09-18T06:17:21.781Z,18.72
2023-09-18T06:19:49.737Z,18.68
2023-09-18T06:22:17.472Z,18.75
2023-09-18T06:24:45.256Z,18.94
2023-09-18T06:27:13.316Z,18.94
2023-09-18T06:29:44.205Z,19.15
2023-09-18T06:32:11.978Z,19.09
2023-09-18T06:34:44.068Z,19.24
2023-09-18T06:37:13.445Z,18.93
2023-09-18T06:39:41.123Z,19.18
2023-09-18T06:42:08.944Z,18.92
2023-09-18T06:44:36.586Z,18.88
2023-09-18T06:47:06.020Z,18.91
2023-09-18T06:49:33.925Z,19.00
2023-09-18T06:52:01.626Z,18.82
2023-09-18T06:54:29.325Z,18.84
2023-09-18T06:56:57.123Z,18.89
2023-09-18T06:59:24.855Z,18.89
2023-09-18T07:01:52.558Z,18.90
2023-09-18T07:04:21.640Z,18.79
2023-09-18T07:06:49.763Z,18.78
2023-09-18T07:09:19.332Z,18.77
2023-09-18T07:11:47.911Z,18.79
2023-09-18T07:14:16.059Z,18.78
2023-09-18T07:16:44.434Z,18.85
2023-09-18T07:19:13.159Z,18.84
2023-09-18T07:21:42.899Z,18.81
2023-09-18T07:24:11.397Z,18.79
2023-09-18T07:26:39.209Z,18.78
2023-09-18T07:29:06.961Z,18.83
2023-09-18T07:31:34.929Z,18.75
2023-09-18T07:34:02.622Z,18.73
2023-09-18T07:36:30.384Z,18.82
2023-09-18T07:38:59.761Z,18.81
2023-09-18T07:41:27.546Z,18.84
2023-09-18T07:43:55.316Z,18.90
2023-09-18T07:46:22.971Z,18.83
2023-09-18T07:48:50.862Z,18.85
2023-09-18T07:51:18.687Z,18.86
2023-09-18T07:53:46.433Z,18.88
2023-09-18T07:56:15.651Z,18.99
2023-09-18T07:58:43.587Z,19.05
2023-09-18T08:01:11.588Z,18.94
2023-09-18T08:03:39.655Z,19.06
2023-09-18T08:06:07.414Z,19.06
2023-09-18T08:08:35.132Z,19.06
2023-09-18T08:11:09.563Z,19.09
2023-09-18T08:13:38.770Z,19.18
2023-09-18T08:16:08.188Z,19.13
2023-09-18T08:18:36.462Z,19.11
2023-09-18T08:21:05.941Z,19.11
2023-09-18T08:23:34.932Z,19.06
2023-09-18T08:26:02.925Z,19.10
2023-09-18T08:28:30.636Z,19.13
2023-09-18T08:31:00.629Z,19.15
2023-09-18T08:33:28.377Z,19.26
2023-09-18T08:35:56.531Z,19.32
2023-09-18T08:38:24.292Z,19.29
2023-09-18T08:40:53.082Z,19.38
2023-09-18T08:43:22.394Z,19.65
2023-09-18T08:45:54.446Z,19.56
2023-09-18T08:48:24.137Z,19.89
2023-09-18T08:50:53.015Z,19.72
2023-09-18T08:53:20.931Z,20.08
2023-09-18T08:55:48.690Z,20.04
2023-09-18T08:58:20.640Z,20.11
2023-09-18T09:00:48.483Z,20.28
2023-09-18T09:03:16.871Z,20.46
2023-09-18T09:05:46.210Z,20.20
2023-09-18T09:08:13.949Z,20.07
2023-09-18T09:10:42.188Z,20.22
2023-09-18T09:13:09.847Z,20.22
2023-09-18T09:15:48.443Z,20.34
2023-09-18T09:18:17.152Z,20.46
2023-09-18T09:20:54.944Z,20.09
2023-09-18T09:23:22.837Z,19.98
2023-09-18T09:25:50.617Z,19.97
2023-09-18T09:28:18.624Z,19.84
2023-09-18T09:30:46.331Z,19.80
2023-09-18T09:33:14.254Z,19.72
2023-09-18T09:35:42.936Z,19.81
2023-09-18T09:38:13.833Z,19.83
2023-09-18T09:40:42.730Z,19.78
2023-09-18T09:43:10.923Z,19.70
2023-09-18T09:45:39.606Z,19.86
2023-09-18T09:48:08.107Z,19.73
2023-09-18T09:50:36.654Z,19.63
2023-09-18T09:53:06.094Z,19.71
2023-09-18T09:55:35.854Z,19.56
2023-09-18T09:58:04.482Z,19.55
2023-09-18T10:00:37.690Z,19.51
2023-09-18T10:03:06.768Z,19.70
2023-09-18T10:05:36.152Z,19.68
2023-09-18T10:08:09.475Z,19.64
2023-09-18T10:10:40.174Z,19.87
2023-09-18T10:13:12.173Z,19.79
2023-09-18T10:15:40.918Z,20.10
2023-09-18T10:18:21.553Z,19.96
2023-09-18T10:20:51.729Z,19.87
2023-09-18T10:23:25.602Z,20.03
2023-09-18T10:25:57.196Z,19.96
2023-09-18T10:28:27.604Z,20.04
2023-09-18T10:30:57.550Z,20.15
2023-09-18T10:33:25.374Z,20.10
2023-09-18T10:35:54.831Z,20.20
2023-09-18T10:38:24.237Z,19.95
2023-09-18T10:40:53.221Z,19.84
2023-09-18T10:43:22.561Z,19.86
2023-09-18T10:45:52.328Z,19.81
2023-09-18T10:48:21.478Z,19.98
2023-09-18T10:50:49.220Z,20.27
2023-09-18T10:53:17.086Z,20.65
2023-09-18T10:55:45.458Z,20.69
2023-09-18T10:58:13.171Z,20.99
2023-09-18T11:00:43.730Z,20.92
2023-09-18T11:03:12.672Z,20.33
2023-09-18T11:05:40.829Z,20.62
2023-09-18T11:08:28.129Z,20.52
2023-09-18T11:11:05.273Z,20.39
2023-09-18T11:13:34.007Z,20.55
2023-09-18T11:16:04.555Z,20.24
2023-09-18T11:18:35.389Z,20.38
2023-09-18T11:21:10.337Z,20.64
2023-09-18T11:23:39.553Z,21.26
2023-09-18T11:26:09.189Z,21.19
2023-09-18T11:28:38.350Z,20.82
2023-09-18T11:31:07.416Z,20.95
2023-09-18T11:33:36.123Z,21.02
2023-09-18T11:36:08.405Z,21.13
2023-09-18T11:38:37.141Z,21.32
2023-09-18T11:41:23.658Z,21.68
2023-09-18T11:43:51.296Z,21.60
2023-09-18T11:46:23.342Z,22.03
2023-09-18T11:48:54.998Z,22.15
2023-09-18T11:51:25.853Z,21.99
2023-09-18T11:53:55.790Z,21.68
2023-09-18T11:56:23.542Z,21.76
2023-09-18T11:58:51.819Z,21.74
2023-09-18T12:01:20.441Z,22.02
2023-09-18T12:03:54.838Z,22.04
2023-09-18T12:06:23.358Z,22.19
2023-09-18T12:08:53.909Z,22.34
2023-09-18T12:11:21.772Z,22.25
2023-09-18T12:13:52.739Z,22.12
2023-09-18T12:16:20.658Z,22.51
2023-09-18T12:18:50.385Z,22.41
2023-09-18T12:21:19.251Z,22.40
2023-09-18T12:23:47.914Z,22.63
2023-09-18T12:26:15.999Z,22.70
2023-09-18T12:28:44.177Z,22.41
2023-09-18T12:31:12.503Z,22.10
2023-09-18T12:33:41.146Z,22.50
2023-09-18T12:36:10.471Z,22.66
2023-09-18T12:38:38.992Z,22.62
2023-09-18T12:41:10.518Z,22.51
2023-09-18T12:43:38.880Z,22.27
2023-09-18T12:46:07.040Z,22.02
2023-09-18T12:48:34.934Z,21.78
2023-09-18T12:51:06.096Z,21.69
2023-09-18T12:53:35.382Z,22.12
2023-09-18T12:56:10.202Z,22.07
2023-09-18T12:58:48.637Z,22.00
2023-09-18T13:01:25.099Z,22.16
2023-09-18T13:03:56.226Z,22.29
2023-09-18T13:06:24.478Z,22.04
2023-09-18T13:08:54.590Z,22.48
2023-09-18T13:11:22.441Z,22.35
2023-09-18T13:13:59.186Z,22.51
2023-09-18T13:16:27.094Z,22.32
2023-09-18T13:18:54.808Z,22.75
2023-09-18T13:21:22.543Z,22.58
2023-09-18T13:23:50.279Z,22.72
2023-09-18T13:26:19.532Z,23.02
2023-09-18T13:28:47.158Z,22.60
2023-09-18T13:31:14.803Z,22.55
2023-09-18T13:33:45.802Z,22.22
2023-09-18T13:36:13.807Z,22.59
2023-09-18T13:38:41.428Z,23.49
2023-09-18T13:41:09.153Z,24.23
2023-09-18T13:43:38.683Z,24.68
2023-09-18T13:46:06.668Z,24.68
2023-09-18T13:48:34.840Z,24.74
2023-09-18T13:51:04.633Z,25.16
2023-09-18T13:53:32.640Z,24.89
2023-09-18T13:56:00.403Z,24.30
2023-09-18T13:58:28.104Z,24.10
2023-09-18T14:00:58.252Z,24.73
2023-09-18T14:03:26.026Z,24.35
2023-09-18T14:05:53.991Z,24.46
2023-09-18T14:08:21.831Z,23.48
2023-09-18T14:10:49.539Z,22.73
2023-09-18T14:13:18.488Z,22.50
2023-09-18T14:15:52.503Z,22.23
2023-09-18T14:18:21.870Z,22.45
2023-09-18T14:20:49.701Z,22.83
2023-09-18T14:23:17.499Z,23.03
2023-09-18T14:25:45.242Z,22.30
2023-09-18T14:28:14.558Z,21.96
2023-09-18T14:30:42.315Z,22.22
2023-09-18T14:33:10.157Z,21.81
2023-09-18T14:35:39.488Z,21.79
2023-09-18T14:38:07.981Z,21.77
2023-09-18T14:40:35.850Z,21.60
2023-09-18T14:43:03.669Z,21.50
2023-09-18T14:45:31.275Z,21.56
2023-09-18T14:47:59.768Z,21.42
2023-09-18T14:50:27.797Z,21.32
2023-09-18T14:52:57.006Z,21.26
2023-09-18T14:55:25.519Z,21.37
2023-09-18T14:57:55.656Z,20.93
2023-09-18T15:00:43.191Z,20.78
2023-09-18T15:03:10.971Z,20.45
2023-09-18T15:05:39.625Z,20.25
2023-09-18T15:08:09.233Z,19.37
2023-09-18T15:10:37.139Z,18.40
2023-09-18T15:13:05.126Z,17.87
2023-09-18T15:15:32.836Z,17.78
2023-09-18T15:18:00.614Z,17.52
2023-09-18T15:20:28.852Z,17.42
2023-09-18T15:22:57.279Z,17.44
2023-09-18T15:25:26.284Z,17.48
2023-09-18T15:27:54.296Z,17.55
2023-09-18T15:30:22.002Z,17.57
2023-09-18T15:32:51.890Z,17.59
2023-09-18T15:35:19.866Z,17.38
2023-09-18T15:37:47.828Z,17.63
2023-09-18T15:40:17.053Z,17.38
2023-09-18T15:42:46.465Z,17.32
2023-09-18T15:45:14.113Z,17.42
2023-09-18T15:47:43.262Z,17.35
2023-09-18T15:50:12.011Z,17.58
2023-09-18T15:52:40.096Z,17.72
2023-09-18T15:55:08.350Z,17.83
2023-09-18T15:57:37.012Z,18.13
2023-09-18T16:00:09.520Z,18.26
2023-09-18T16:02:38.050Z,18.04
2023-09-18T16:05:06.842Z,18.00
2023-09-18T16:07:35.926Z,18.01
2023-09-18T16:10:05.409Z,17.93
2023-09-18T16:12:34.767Z,18.20
2023-09-18T16:15:03.650Z,18.00
2023-09-18T16:17:33.006Z,18.15
2023-09-18T16:20:01.927Z,17.99
2023-09-18T16:22:29.865Z,18.14
2023-09-18T16:25:00.409Z,18.15
2023-09-18T16:27:28.265Z,17.85
2023-09-18T16:29:55.936Z,17.84
2023-09-18T16:32:23.791Z,17.71
2023-09-18T16:34:52.829Z,17.62
2023-09-18T16:37:20.524Z,17.65
2023-09-18T16:39:48.258Z,17.60
2023-09-18T16:42:15.874Z,17.65
2023-09-18T16:44:43.932Z,17.50
2023-09-18T16:47:11.895Z,17.67
2023-09-18T16:49:39.683Z,17.75
2023-09-18T16:52:08.940Z,17.78
2023-09-18T16:54:36.626Z,17.81
2023-09-18T16:57:04.585Z,17.84
2023-09-18T16:59:32.300Z,17.83
2023-09-18T17:02:01.982Z,17.88
2023-09-18T17:04:30.853Z,18.00
2023-09-18T17:06:58.559Z,17.98
2023-09-18T17:09:27.624Z,17.92
2023-09-18T17:11:55.442Z,17.98
2023-09-18T17:14:23.072Z,18.00
2023-09-18T17:16:51.362Z,17.99
2023-09-18T17:19:19.359Z,17.93
2023-09-18T17:21:46.957Z,17.81
2023-09-18T17:24:15.036Z,17.90
2023-09-18T17:26:44.201Z,17.79
2023-09-18T17:29:12.334Z,17.78
2023-09-18T17:31:40.001Z,17.50
2023-09-18T17:34:07.751Z,17.71
2023-09-18T17:39:06.279Z,17.69
2023-09-18T17:41:33.920Z,17.65
2023-09-18T17:44:03.653Z,17.62
2023-09-18T17:46:31.543Z,17.70
2023-09-18T17:48:59.282Z,17.70
2023-09-18T17:51:26.914Z,17.67
2023-09-18T17:53:54.857Z,17.66
2023-09-18T17:56:22.671Z,17.60
2023-09-18T17:58:50.291Z,17.52
2023-09-18T18:01:20.535Z,17.52
2023-09-18T18:03:49.972Z,17.49
2023-09-18T18:06:18.404Z,17.57
2023-09-18T18:08:46.838Z,17.57
2023-09-18T18:11:14.702Z,17.60
2023-09-18T18:13:42.657Z,17.63
2023-09-18T18:16:10.678Z,17.54
2023-09-18T18:18:40.093Z,17.52
2023-09-18T18:21:09.715Z,17.59
2023-09-18T18:23:37.839Z,17.64
2023-09-18T18:26:10.458Z,17.45
2023-09-18T18:28:39.153Z,17.51
2023-09-18T18:31:07.063Z,17.59
2023-09-18T18:33:35.886Z,17.51
2023-09-18T18:36:05.181Z,17.53
2023-09-18T18:38:35.788Z,17.57
2023-09-18T18:41:04.268Z,17.62
2023-09-18T18:43:32.220Z,17.71
2023-09-18T18:45:59.855Z,17.53
2023-09-18T18:48:28.272Z,17.49
2023-09-18T18:51:01.581Z,17.48
2023-09-18T18:53:31.261Z,17.58
2023-09-18T18:55:59.008Z,17.54
2023-09-18T18:58:26.780Z,17.59
2023-09-18T19:00:58.027Z,17.59
2023-09-18T19:03:25.837Z,17.66
2023-09-18T19:05:53.701Z,17.61
2023-09-18T19:08:21.344Z,17.42
2023-09-18T19:10:50.430Z,17.09
2023-09-18T19:13:18.087Z,17.02
2023-09-18T19:15:45.707Z,16.91
2023-09-18T19:18:13.423Z,16.81
2023-09-18T19:20:41.233Z,16.80
2023-09-18T19:23:08.812Z,16.89
2023-09-18T19:25:47.436Z,16.90
2023-09-18T19:28:16.645Z,16.75
2023-09-18T19:30:47.006Z,16.71
2023-09-18T19:33:15.356Z,16.59
2023-09-18T19:35:43.028Z,16.46
2023-09-18T19:38:11.058Z,16.35
2023-09-18T19:40:39.477Z,16.42
2023-09-18T19:43:07.358Z,16.25
2023-09-18T19:45:36.420Z,16.19
2023-09-18T19:48:05.166Z,16.15
2023-09-18T19:50:33.590Z,16.24
2023-09-18T19:53:01.707Z,16.01
2023-09-18T19:55:30.349Z,15.70
2023-09-18T19:57:59.269Z,15.62
2023-09-18T20:00:27.485Z,15.62
2023-09-18T20:02:57.343Z,15.60
2023-09-18T20:05:25.540Z,15.62
2023-09-18T20:07:53.584Z,15.63
2023-09-18T20:10:22.567Z,15.68
2023-09-18T20:12:51.335Z,15.78
2023-09-18T20:15:19.930Z,15.66
2023-09-18T20:17:48.321Z,15.80
2023-09-18T20:20:17.784Z,15.87
2023-09-18T20:22:45.574Z,15.89
2023-09-18T20:25:15.868Z,15.94
2023-09-18T20:27:43.833Z,15.98
2023-09-18T20:30:12.765Z,15.98
2023-09-18T20:32:40.808Z,15.96
2023-09-18T20:35:09.069Z,15.76
2023-09-18T20:37:38.497Z,15.80
2023-09-18T20:40:07.673Z,15.76
2023-09-18T20:42:35.572Z,15.73
2023-09-18T20:45:05.520Z,15.79
2023-09-18T20:47:33.833Z,15.86
2023-09-18T20:50:02.769Z,15.89
2023-09-18T20:52:31.201Z,15.97
2023-09-18T20:55:01.536Z,15.94
2023-09-18T20:57:29.427Z,15.99
2023-09-18T20:59:57.127Z,15.96
2023-09-18T21:02:25.739Z,15.99
2023-09-18T21:04:54.670Z,15.93
2023-09-18T21:07:22.629Z,15.98
2023-09-18T21:09:51.158Z,16.02
2023-09-18T21:12:24.073Z,16.00
2023-09-18T21:14:51.897Z,16.05
2023-09-18T21:17:19.597Z,16.10
2023-09-18T21:19:47.247Z,15.95
2023-09-18T21:22:14.903Z,16.01
2023-09-18T21:24:45.854Z,16.03
2023-09-18T21:27:13.582Z,16.07
2023-09-18T21:29:43.054Z,16.12
2023-09-18T21:32:10.817Z,15.90
2023-09-18T21:34:38.765Z,15.93
2023-09-18T21:37:06.408Z,15.88
2023-09-18T21:39:36.918Z,15.74
2023-09-18T21:42:05.539Z,15.69
2023-09-18T21:44:33.284Z,15.69
2023-09-18T21:47:08.446Z,15.63
2023-09-18T21:49:38.184Z,15.50
2023-09-18T21:52:06.275Z,15.40
2023-09-18T21:54:33.938Z,15.29
2023-09-18T21:57:01.725Z,15.31
2023-09-18T21:59:29.491Z,15.21
2023-09-18T22:01:57.260Z,15.23
2023-09-18T22:04:26.445Z,15.45
2023-09-18T22:06:54.652Z,15.20
2023-09-18T22:09:24.749Z,15.38
2023-09-18T22:11:52.744Z,15.37
2023-09-18T22:14:20.454Z,15.51
2023-09-18T22:16:48.057Z,15.36
2023-09-18T22:19:16.055Z,15.30
2023-09-18T22:21:45.143Z,15.42
2023-09-18T22:24:13.145Z,15.49
2023-09-18T22:26:41.151Z,15.40
2023-09-18T22:29:10.173Z,15.29
2023-09-18T22:31:38.035Z,15.20
2023-09-18T22:34:07.135Z,15.15
2023-09-18T22:36:35.099Z,15.20
2023-09-18T22:39:10.923Z,15.24
2023-09-18T22:41:40.031Z,15.29
2023-09-18T22:44:27.747Z,15.32
2023-09-18T22:47:14.750Z,15.30
2023-09-18T22:50:01.405Z,15.27
2023-09-18T22:52:42.553Z,15.20
2023-09-18T22:55:12.999Z,14.94
2023-09-18T22:57:43.223Z,15.11
2023-09-18T23:00:11.942Z,14.91
2023-09-18T23:02:44.065Z,14.94
2023-09-18T23:05:15.511Z,14.77
2023-09-18T23:07:44.994Z,14.78
2023-09-18T23:10:18.084Z,14.79
2023-09-18T23:12:46.103Z,14.63
2023-09-18T23:15:14.388Z,14.78
2023-09-18T23:17:42.782Z,14.81
2023-09-18T23:20:13.100Z,14.91
2023-09-18T23:22:41.803Z,14.79
2023-09-18T23:25:11.143Z,14.65
2023-09-18T23:27:41.552Z,14.82
2023-09-18T23:30:13.238Z,14.76
2023-09-18T23:32:42.965Z,14.74
2023-09-18T23:35:16.721Z,14.60
2023-09-18T23:37:44.866Z,14.32
2023-09-18T23:40:15.186Z,14.28
2023-09-18T23:42:48.383Z,14.30
2023-09-18T23:45:17.299Z,14.15
2023-09-18T23:47:50.510Z,14.14
2023-09-18T23:50:20.283Z,14.18
2023-09-18T23:52:51.996Z,14.26
2023-09-18T23:55:19.713Z,14.33
2023-09-18T23:57:54.980Z,14.25
